This is the latest recevied weather packets stored in our database for station/object WD7OO. If no packets are shown the sender has not sent any weather packets the latest 1 day(s).
| Time | Temp. | Humidity | Pressure | Rain* | Wind** | Luminosity | Snow |
|---|---|---|---|---|---|---|---|
| 1778012962 | 11.67° C | 52% | 1009.4 hPa | 0 mm | 0.89 m/s, 223° | 158 W/m² | - |
| 1778012658 | 11.67° C | 53% | 1009.6 hPa | 0 mm | 0.45 m/s, 323° | 163 W/m² | - |
| 1778012355 | 11.67° C | 54% | 1009.6 hPa | 0 mm | 0.45 m/s, 321° | 188 W/m² | - |
| 1778012052 | 12.22° C | 51% | 1009.4 hPa | 0 mm | 0.45 m/s, 301° | 211 W/m² | - |
| 1778011750 | 11.67° C | 53% | 1009.2 hPa | 0 mm | 0.45 m/s, 335° | 225 W/m² | - |
| 1778011447 | 12.22° C | 49% | 1009.5 hPa | 0 mm | 2.24 m/s, 298° | 244 W/m² | - |
| 1778011142 | 12.22° C | 52% | 1009.2 hPa | 0 mm | 0.45 m/s, 301° | 272 W/m² | - |
| 1778010840 | 12.78° C | 49% | 1009.6 hPa | 0 mm | 0.45 m/s, 347° | 294 W/m² | - |
| 1778010537 | 12.78° C | 53% | 1009.3 hPa | 0 mm | 0.89 m/s, 285° | 326 W/m² | - |
| 1778010234 | 12.78° C | 55% | 1009.6 hPa | 0 mm | 0.45 m/s, 322° | 302 W/m² | - |
| 1778009929 | 12.78° C | 57% | 1009.5 hPa | 0 mm | 0.45 m/s, 323° | 301 W/m² | - |
| 1778009627 | 12.78° C | 58% | 1009.5 hPa | 0 mm | 0.45 m/s, 349° | 280 W/m² | - |
| 1778009324 | 12.78° C | 53% | 1009.4 hPa | 0 mm | 0 m/s | 309 W/m² | - |
| 1778009023 | 12.78° C | 55% | 1009.7 hPa | 0 mm | 1.34 m/s, 6° | 368 W/m² | - |
| 1778008720 | 13.33° C | 51% | 1009.8 hPa | 0 mm | 1.79 m/s, 290° | 375 W/m² | - |
| 1778008418 | 12.78° C | 51% | 1009.8 hPa | 0 mm | 1.34 m/s, 23° | 429 W/m² | - |
| 1778008115 | 12.78° C | 54% | 1009.8 hPa | 0 mm | 1.34 m/s, 292° | 365 W/m² | - |
| 1778007810 | 12.22° C | 55% | 1009.6 hPa | 0 mm | 0.89 m/s, 205° | 309 W/m² | - |
| 1778007506 | 12.78° C | 54% | 1009.8 hPa | 0 mm | 1.79 m/s, 262° | 285 W/m² | - |
| 1778007203 | 13.33° C | 56% | 1009.6 hPa | 0 mm | 1.34 m/s, 255° | 467 W/m² | - |
| 1778006899 | 13.33° C | 56% | 1009.4 hPa | 0 mm | 1.79 m/s, 302° | 440 W/m² | - |
| 1778006596 | 13.33° C | 54% | 1009.6 hPa | 0 mm | 1.79 m/s, 263° | 548 W/m² | - |
| 1778006293 | 13.33° C | 57% | 1009.3 hPa | 0 mm | 1.34 m/s, 287° | 462 W/m² | - |
| 1778005990 | 13.33° C | 58% | 1009.3 hPa | 0 mm | 0.89 m/s, 253° | 661 W/m² | - |
| 1778005687 | 12.78° C | 60% | 1009.5 hPa | 0 mm | 0.89 m/s, 320° | 390 W/m² | - |
* Rain latest hour (hover to see other rain measurements)
** Current wind speed in m/s (hover to see current wind gust speed)